createdAt,value
2019-02-22T00:01:12.524Z,3.43
2019-02-22T00:03:39.853Z,3.77
2019-02-22T00:06:07.154Z,3.43
2019-02-22T00:08:34.482Z,4.00
2019-02-22T00:11:01.754Z,3.83
2019-02-22T00:13:29.033Z,4.13
2019-02-22T00:15:56.328Z,3.80
2019-02-22T00:18:23.617Z,4.23
2019-02-22T00:20:50.965Z,4.53
2019-02-22T00:23:18.237Z,4.40
2019-02-22T00:25:45.574Z,4.13
2019-02-22T00:28:12.922Z,4.50
2019-02-22T00:30:40.226Z,2.90
2019-02-22T00:33:07.549Z,3.80
2019-02-22T00:35:34.804Z,2.80
2019-02-22T00:38:02.050Z,3.10
2019-02-22T00:40:29.334Z,3.90
2019-02-22T00:42:56.642Z,3.17
2019-02-22T00:45:23.999Z,3.00
2019-02-22T00:47:51.286Z,2.70
2019-02-22T00:50:18.566Z,3.40
2019-02-22T00:52:45.849Z,3.20
2019-02-22T00:55:13.135Z,3.33
2019-02-22T00:57:40.400Z,3.67
2019-02-22T01:00:08.580Z,3.63
2019-02-22T01:02:35.864Z,3.83
2019-02-22T01:05:03.141Z,3.30
2019-02-22T01:07:30.393Z,3.70
2019-02-22T01:09:57.701Z,4.97
2019-02-22T01:12:24.985Z,4.30
2019-02-22T01:14:52.246Z,4.20
2019-02-22T01:17:19.505Z,3.80
2019-02-22T01:19:46.759Z,3.77
2019-02-22T01:22:14.066Z,3.57
2019-02-22T01:24:41.375Z,3.77
2019-02-22T01:27:08.640Z,4.20
2019-02-22T01:29:35.907Z,3.80
2019-02-22T01:32:03.178Z,3.93
2019-02-22T01:34:30.421Z,3.67
2019-02-22T01:36:57.698Z,3.80
2019-02-22T01:39:24.973Z,2.53
2019-02-22T01:41:52.254Z,4.03
2019-02-22T01:44:20.752Z,3.57
2019-02-22T01:46:47.999Z,3.20
2019-02-22T01:49:15.264Z,2.70
2019-02-22T01:51:42.565Z,3.20
2019-02-22T01:54:09.811Z,2.27
2019-02-22T01:56:37.066Z,3.03
2019-02-22T01:59:04.364Z,3.57
2019-02-22T02:01:31.612Z,3.40
2019-02-22T02:03:58.864Z,3.10
2019-02-22T02:06:26.181Z,3.07
2019-02-22T02:08:53.438Z,3.10
2019-02-22T02:11:20.684Z,2.70
2019-02-22T02:13:47.971Z,2.93
2019-02-22T02:16:15.269Z,2.60
2019-02-22T02:18:42.563Z,2.67
2019-02-22T02:21:09.813Z,2.90
2019-02-22T02:23:37.065Z,2.50
2019-02-22T02:26:04.341Z,2.50
2019-02-22T02:28:31.614Z,2.23
2019-02-22T02:30:58.883Z,2.30
2019-02-22T02:33:26.162Z,2.37
2019-02-22T02:35:53.407Z,2.37
2019-02-22T02:38:20.736Z,2.20
2019-02-22T02:40:47.991Z,2.30
2019-02-22T02:43:15.266Z,2.73
2019-02-22T02:45:42.565Z,2.57
2019-02-22T02:48:09.829Z,1.73
2019-02-22T02:50:37.091Z,2.00
2019-02-22T02:53:04.374Z,2.30
2019-02-22T02:55:33.130Z,1.70
2019-02-22T02:58:00.433Z,2.40
2019-02-22T03:00:27.792Z,2.57
2019-02-22T03:02:55.046Z,2.73
2019-02-22T03:05:24.200Z,3.17
2019-02-22T03:07:51.485Z,3.33
2019-02-22T03:10:18.741Z,2.63
2019-02-22T03:12:46.038Z,3.07
2019-02-22T03:15:13.894Z,2.60
2019-02-22T03:17:41.153Z,2.70
2019-02-22T03:20:08.470Z,3.10
2019-02-22T03:22:35.717Z,2.90
2019-02-22T03:25:04.664Z,2.60
2019-02-22T03:27:31.935Z,2.00
2019-02-22T03:29:59.204Z,2.60
2019-02-22T03:32:26.509Z,1.90
2019-02-22T03:34:53.757Z,2.40
2019-02-22T03:37:21.016Z,2.20
2019-02-22T03:39:48.331Z,2.07
2019-02-22T03:42:15.589Z,2.60
2019-02-22T03:44:42.864Z,2.70
2019-02-22T03:47:10.160Z,2.80
2019-02-22T03:49:37.404Z,1.63
2019-02-22T03:52:21.456Z,2.17
2019-02-22T03:54:48.696Z,2.10
2019-02-22T03:57:15.946Z,2.00
2019-02-22T03:59:43.233Z,1.70
2019-02-22T04:02:10.519Z,1.90
2019-02-22T04:04:37.774Z,2.17
2019-02-22T04:07:05.089Z,1.50
2019-02-22T04:09:32.340Z,1.80
2019-02-22T04:11:59.588Z,2.00
2019-02-22T04:14:26.860Z,2.47
2019-02-22T04:16:54.138Z,2.27
2019-02-22T04:19:21.397Z,1.93
2019-02-22T04:21:48.674Z,2.47
2019-02-22T04:24:15.975Z,2.77
2019-02-22T04:26:43.241Z,2.50
2019-02-22T04:29:10.496Z,3.10
2019-02-22T04:31:37.769Z,3.60
2019-02-22T04:34:05.060Z,3.97
2019-02-22T04:36:32.338Z,3.67
2019-02-22T04:38:59.638Z,4.43
2019-02-22T04:41:26.904Z,3.97
2019-02-22T04:43:54.153Z,4.27
2019-02-22T04:46:21.491Z,4.07
2019-02-22T04:48:48.740Z,3.53
2019-02-22T04:51:16.003Z,3.10
2019-02-22T04:53:43.287Z,3.40
2019-02-22T04:56:10.585Z,3.70
2019-02-22T04:58:37.863Z,4.93
2019-02-22T05:01:05.108Z,4.83
2019-02-22T05:03:32.397Z,3.77
2019-02-22T05:05:59.652Z,4.37
2019-02-22T05:08:26.921Z,5.97
2019-02-22T05:10:54.192Z,4.90
2019-02-22T05:13:21.491Z,6.07
2019-02-22T05:15:48.768Z,3.70
2019-02-22T05:18:16.027Z,3.57
2019-02-22T05:20:43.350Z,2.03
2019-02-22T05:23:10.612Z,3.77
2019-02-22T05:25:37.984Z,3.27
2019-02-22T05:28:05.265Z,4.73
2019-02-22T05:30:32.535Z,10.33
2019-02-22T05:32:59.801Z,8.03
2019-02-22T05:35:27.497Z,3.77
2019-02-22T05:37:54.811Z,3.27
2019-02-22T05:40:22.064Z,2.90
2019-02-22T05:42:49.373Z,2.47
2019-02-22T05:45:16.648Z,3.17
2019-02-22T05:47:50.644Z,3.60
2019-02-22T05:50:17.929Z,3.07
2019-02-22T05:52:45.249Z,3.53
2019-02-22T05:55:12.508Z,3.30
2019-02-22T05:57:39.753Z,3.03
2019-02-22T06:00:07.227Z,2.60
2019-02-22T06:02:34.488Z,3.17
2019-02-22T06:05:01.766Z,3.60
2019-02-22T06:07:29.017Z,3.13
2019-02-22T06:09:56.296Z,3.20
2019-02-22T06:12:33.867Z,3.67
2019-02-22T06:14:52.739Z,4.90
2019-02-22T06:17:19.984Z,5.23
2019-02-22T06:19:47.309Z,5.63
2019-02-22T06:22:14.574Z,13.37
2019-02-22T06:24:41.928Z,10.97
2019-02-22T06:27:09.213Z,11.17
2019-02-22T06:29:36.586Z,13.90
2019-02-22T06:32:03.899Z,12.77
2019-02-22T06:34:31.137Z,13.97
2019-02-22T06:37:02.096Z,12.00
2019-02-22T06:39:27.538Z,8.63
2019-02-22T06:41:55.071Z,8.47
2019-02-22T06:44:22.496Z,10.63
2019-02-22T06:46:50.255Z,10.13
2019-02-22T06:49:17.672Z,9.50
2019-02-22T06:51:45.061Z,6.23
2019-02-22T06:54:12.345Z,5.07
2019-02-22T06:56:39.717Z,4.80
2019-02-22T06:59:07.052Z,4.37
2019-02-22T07:01:34.342Z,5.17
2019-02-22T07:04:01.701Z,4.37
2019-02-22T07:06:30.090Z,3.57
2019-02-22T07:08:57.383Z,4.00
2019-02-22T07:11:26.527Z,6.73
2019-02-22T07:13:53.876Z,5.77
2019-02-22T07:16:21.153Z,4.13
2019-02-22T07:18:49.923Z,3.70
2019-02-22T07:21:17.336Z,4.23
2019-02-22T07:23:44.687Z,6.47
2019-02-22T07:26:11.983Z,5.20
2019-02-22T07:28:39.338Z,3.90
2019-02-22T07:31:06.609Z,3.80
2019-02-22T07:33:33.969Z,3.33
2019-02-22T07:36:01.246Z,2.77
2019-02-22T07:38:28.591Z,3.10
2019-02-22T07:40:55.937Z,3.37
2019-02-22T07:43:23.782Z,3.47
2019-02-22T07:45:51.257Z,4.17
2019-02-22T07:48:19.545Z,4.57
2019-02-22T07:50:56.878Z,3.73
2019-02-22T07:53:16.052Z,4.13
2019-02-22T07:55:43.313Z,4.00
2019-02-22T07:58:10.660Z,3.13
2019-02-22T08:00:37.944Z,3.10
2019-02-22T08:03:05.284Z,5.23
2019-02-22T08:05:32.574Z,4.60
2019-02-22T08:07:59.960Z,5.37
2019-02-22T08:10:27.255Z,3.57
2019-02-22T08:12:54.922Z,7.80
2019-02-22T08:15:22.263Z,6.97
2019-02-22T08:17:49.594Z,4.17
2019-02-22T08:20:17.330Z,5.57
2019-02-22T08:22:44.717Z,9.83
2019-02-22T08:25:12.022Z,6.13
2019-02-22T08:27:40.176Z,7.00
2019-02-22T08:30:09.709Z,5.47
2019-02-22T08:32:36.994Z,4.90
2019-02-22T08:35:05.232Z,3.97
2019-02-22T08:37:32.584Z,3.90
2019-02-22T08:40:02.151Z,2.90
2019-02-22T08:42:28.974Z,4.40
2019-02-22T08:44:56.281Z,4.07
2019-02-22T08:47:25.934Z,3.33
2019-02-22T08:49:53.242Z,3.20
2019-02-22T08:52:20.557Z,2.20
2019-02-22T08:54:48.100Z,4.43
2019-02-22T08:57:15.479Z,2.70
2019-02-22T08:59:42.758Z,2.97
2019-02-22T09:02:10.114Z,3.50
2019-02-22T09:04:37.389Z,4.47
2019-02-22T09:07:04.867Z,5.87
2019-02-22T09:09:32.137Z,6.17
2019-02-22T09:11:59.531Z,6.60
2019-02-22T09:14:26.862Z,5.87
2019-02-22T09:16:54.060Z,4.20
2019-02-22T09:19:21.313Z,11.33
2019-02-22T09:21:48.598Z,6.00
2019-02-22T09:24:16.430Z,3.57
2019-02-22T09:26:43.720Z,4.70
2019-02-22T09:29:11.068Z,4.17
2019-02-22T09:31:38.357Z,3.70
2019-02-22T09:34:05.619Z,3.87
2019-02-22T09:36:32.958Z,6.10
2019-02-22T09:39:00.239Z,8.53
2019-02-22T09:41:27.562Z,5.80
2019-02-22T09:43:55.849Z,12.00
2019-02-22T09:46:23.197Z,11.30
2019-02-22T09:48:50.554Z,6.87
2019-02-22T09:51:17.828Z,4.57
2019-02-22T09:53:45.106Z,4.80
2019-02-22T09:56:12.415Z,6.57
2019-02-22T09:58:39.694Z,8.97
2019-02-22T10:01:06.982Z,8.63
2019-02-22T10:03:34.334Z,11.10
2019-02-22T10:06:01.954Z,6.70
2019-02-22T10:08:29.230Z,7.53
2019-02-22T10:10:56.606Z,9.03
2019-02-22T10:13:24.970Z,4.67
2019-02-22T10:15:52.340Z,2.70
2019-02-22T10:18:20.041Z,5.27
2019-02-22T10:20:47.382Z,6.27
2019-02-22T10:23:14.760Z,3.97
2019-02-22T10:25:42.356Z,3.03
2019-02-22T10:28:17.372Z,4.33
2019-02-22T10:30:38.875Z,4.40
2019-02-22T10:33:06.244Z,7.23
2019-02-22T10:35:33.588Z,7.30
2019-02-22T10:38:00.873Z,4.27
2019-02-22T10:40:28.328Z,2.70
2019-02-22T10:42:55.614Z,5.27
2019-02-22T10:45:22.930Z,5.10
2019-02-22T10:47:50.235Z,2.73
2019-02-22T10:50:17.526Z,5.30
2019-02-22T10:52:44.792Z,5.50
2019-02-22T10:55:12.069Z,4.00
2019-02-22T10:57:39.320Z,2.80
2019-02-22T11:00:11.155Z,3.03
2019-02-22T11:02:38.426Z,4.57
2019-02-22T11:05:05.817Z,4.90
2019-02-22T11:07:33.095Z,6.03
2019-02-22T11:10:00.407Z,8.07
2019-02-22T11:12:27.729Z,5.70
2019-02-22T11:14:55.017Z,5.67
2019-02-22T11:17:22.422Z,3.17
2019-02-22T11:19:49.687Z,8.73
2019-02-22T11:22:16.970Z,6.90
2019-02-22T11:24:44.337Z,5.27
2019-02-22T11:27:11.597Z,7.57
2019-02-22T11:29:38.938Z,6.97
2019-02-22T11:32:06.225Z,15.18
2019-02-22T11:34:33.521Z,15.23
2019-02-22T11:37:01.141Z,6.97
2019-02-22T11:39:28.388Z,6.90
2019-02-22T11:41:55.725Z,12.73
2019-02-22T11:44:23.041Z,7.95
2019-02-22T11:46:50.362Z,5.17
2019-02-22T11:49:19.130Z,6.40
2019-02-22T11:51:46.556Z,11.97
2019-02-22T11:54:13.911Z,4.53
2019-02-22T11:56:41.304Z,2.52
2019-02-22T11:59:08.579Z,6.58
2019-02-22T12:01:35.893Z,8.63
2019-02-22T12:04:03.253Z,5.67
2019-02-22T12:06:30.529Z,3.92
2019-02-22T12:08:57.930Z,5.72
2019-02-22T12:11:25.205Z,6.60
2019-02-22T12:13:52.524Z,7.17
2019-02-22T12:16:19.820Z,4.95
2019-02-22T12:18:47.465Z,4.28
2019-02-22T12:21:14.964Z,6.87
2019-02-22T12:23:42.263Z,4.63
2019-02-22T12:26:12.514Z,5.90
2019-02-22T12:28:39.845Z,7.12
2019-02-22T12:31:07.113Z,3.77
2019-02-22T12:33:34.683Z,2.85
2019-02-22T12:36:01.925Z,3.75
2019-02-22T12:38:29.185Z,6.85
2019-02-22T12:40:56.522Z,7.25
2019-02-22T12:43:23.857Z,3.33
2019-02-22T12:45:51.115Z,4.90
2019-02-22T12:48:18.749Z,3.97
2019-02-22T12:50:46.272Z,4.33
2019-02-22T12:53:13.549Z,4.20
2019-02-22T12:55:40.868Z,5.35
2019-02-22T12:58:08.172Z,5.55
2019-02-22T13:00:35.484Z,6.50
2019-02-22T13:03:02.790Z,5.40
2019-02-22T13:05:30.298Z,5.63
2019-02-22T13:07:57.726Z,4.60
2019-02-22T13:10:25.097Z,5.97
2019-02-22T13:12:52.712Z,5.00
2019-02-22T13:15:20.246Z,6.77
2019-02-22T13:17:47.565Z,5.73
2019-02-22T13:20:14.836Z,6.60
2019-02-22T13:22:42.112Z,6.03
2019-02-22T13:25:10.020Z,5.57
2019-02-22T13:27:37.278Z,6.13
2019-02-22T13:30:07.824Z,4.87
2019-02-22T13:32:35.288Z,5.93
2019-02-22T13:35:02.785Z,8.47
2019-02-22T13:37:30.070Z,9.90
2019-02-22T13:39:57.381Z,9.17
2019-02-22T13:42:25.200Z,7.87
2019-02-22T13:44:52.486Z,8.20
2019-02-22T13:47:19.893Z,4.57
2019-02-22T13:49:47.225Z,3.90
2019-02-22T13:52:14.481Z,4.10
2019-02-22T13:54:44.517Z,4.03
2019-02-22T13:57:11.815Z,7.03
2019-02-22T13:59:39.166Z,6.90
2019-02-22T14:02:06.448Z,4.23
2019-02-22T14:04:34.588Z,4.30
2019-02-22T14:07:01.922Z,5.83
2019-02-22T14:09:29.216Z,5.50
2019-02-22T14:11:56.560Z,6.10
2019-02-22T14:14:23.917Z,5.60
2019-02-22T14:16:51.241Z,3.80
2019-02-22T14:19:18.522Z,5.77
2019-02-22T14:21:45.868Z,8.77
2019-02-22T14:24:13.141Z,7.00
2019-02-22T14:26:40.455Z,4.40
2019-02-22T14:29:07.786Z,5.27
2019-02-22T14:31:35.121Z,3.60
2019-02-22T14:34:02.449Z,4.90
2019-02-22T14:36:29.862Z,6.27
2019-02-22T14:38:57.188Z,7.67
2019-02-22T14:41:24.540Z,6.83
2019-02-22T14:43:51.925Z,6.73
2019-02-22T14:46:26.000Z,6.10
2019-02-22T14:48:49.628Z,5.77
2019-02-22T14:51:18.053Z,5.20
2019-02-22T14:53:45.425Z,4.90
2019-02-22T14:56:12.713Z,3.73
2019-02-22T14:58:40.044Z,2.80
2019-02-22T15:01:07.363Z,3.03
2019-02-22T15:03:35.017Z,6.50
2019-02-22T15:06:02.333Z,9.30
2019-02-22T15:08:29.607Z,7.10
2019-02-22T15:10:56.937Z,10.53
2019-02-22T15:13:24.207Z,6.90
2019-02-22T15:16:11.156Z,5.83
2019-02-22T15:18:38.458Z,6.97
2019-02-22T15:21:05.829Z,7.97
2019-02-22T15:23:33.134Z,6.40
2019-02-22T15:26:00.472Z,6.00
2019-02-22T15:28:27.770Z,6.33
2019-02-22T15:30:55.136Z,8.10
2019-02-22T15:33:22.394Z,8.90
2019-02-22T15:35:49.718Z,6.77
2019-02-22T15:38:17.012Z,8.23
2019-02-22T15:40:44.378Z,9.80
2019-02-22T15:43:11.676Z,10.23
2019-02-22T15:45:39.006Z,9.03
2019-02-22T15:48:06.343Z,8.03
2019-02-22T15:50:33.712Z,8.03
2019-02-22T15:53:01.044Z,10.17
2019-02-22T15:55:28.321Z,9.47
2019-02-22T15:57:55.654Z,10.83
2019-02-22T16:00:29.319Z,10.77
2019-02-22T16:02:56.707Z,13.23
2019-02-22T16:05:25.891Z,13.17
2019-02-22T16:07:53.246Z,13.33
2019-02-22T16:10:20.588Z,17.90
2019-02-22T16:12:48.047Z,20.37
2019-02-22T16:15:15.400Z,22.30
2019-02-22T16:17:42.773Z,24.43
2019-02-22T16:20:10.130Z,23.37
2019-02-22T16:22:37.490Z,22.10
2019-02-22T16:25:05.432Z,20.17
2019-02-22T16:27:35.291Z,21.03
2019-02-22T16:30:13.485Z,21.50
2019-02-22T16:32:40.933Z,20.47
2019-02-22T16:35:08.265Z,21.43
2019-02-22T16:37:35.569Z,22.43
2019-02-22T16:40:03.968Z,22.80
2019-02-22T16:42:31.288Z,27.97
2019-02-22T16:44:58.552Z,32.40
2019-02-22T16:47:25.832Z,30.67
2019-02-22T16:49:53.149Z,25.63
2019-02-22T16:52:20.441Z,25.67
2019-02-22T16:54:48.046Z,24.13
2019-02-22T16:57:15.333Z,21.93
2019-02-22T16:59:42.772Z,21.47
2019-02-22T17:02:10.049Z,20.17
2019-02-22T17:04:37.392Z,20.87
2019-02-22T17:07:04.716Z,21.07
2019-02-22T17:09:33.286Z,17.13
2019-02-22T17:12:06.460Z,21.70
2019-02-22T17:14:29.796Z,23.53
2019-02-22T17:16:57.150Z,23.77
2019-02-22T17:19:24.509Z,21.10
2019-02-22T17:21:51.773Z,18.67
2019-02-22T17:24:19.112Z,20.63
2019-02-22T17:26:46.433Z,20.77
2019-02-22T17:29:13.811Z,21.37
2019-02-22T17:31:41.163Z,22.30
2019-02-22T17:34:08.505Z,19.30
2019-02-22T17:36:35.798Z,19.40
2019-02-22T17:39:04.325Z,18.87
2019-02-22T17:41:31.607Z,23.10
2019-02-22T17:43:59.010Z,21.77
2019-02-22T17:46:26.297Z,27.67
2019-02-22T17:48:53.684Z,25.63
2019-02-22T17:51:20.995Z,27.70
2019-02-22T17:53:48.380Z,30.47
2019-02-22T17:56:15.668Z,33.77
2019-02-22T17:58:42.953Z,32.93
2019-02-22T18:01:10.259Z,31.73
2019-02-22T18:03:37.514Z,32.83
2019-02-22T18:06:04.786Z,33.87
2019-02-22T18:08:32.067Z,39.33
2019-02-22T18:10:59.364Z,40.03
2019-02-22T18:13:26.686Z,38.93
2019-02-22T18:15:54.033Z,39.47
2019-02-22T18:18:21.990Z,38.37
2019-02-22T18:20:49.465Z,39.63
2019-02-22T18:23:16.780Z,41.87
2019-02-22T18:25:44.060Z,43.13
2019-02-22T18:28:11.423Z,46.03
2019-02-22T18:30:38.706Z,44.80
2019-02-22T18:33:06.078Z,41.80
2019-02-22T18:35:33.350Z,39.63
2019-02-22T18:38:00.958Z,33.50
2019-02-22T18:40:28.180Z,31.50
2019-02-22T18:42:55.437Z,34.90
2019-02-22T18:45:22.748Z,32.23
2019-02-22T18:47:50.043Z,33.57
2019-02-22T18:50:17.320Z,34.17
2019-02-22T18:52:44.671Z,31.73
2019-02-22T18:55:11.955Z,29.20
2019-02-22T18:57:39.293Z,31.63
2019-02-22T19:00:20.041Z,30.83
2019-02-22T19:02:47.627Z,32.27
2019-02-22T19:05:14.916Z,26.03
2019-02-22T19:07:42.279Z,22.07
2019-02-22T19:10:11.157Z,22.87
2019-02-22T19:12:39.187Z,19.37
2019-02-22T19:15:09.189Z,20.10
2019-02-22T19:17:36.464Z,20.70
2019-02-22T19:20:09.125Z,22.63
2019-02-22T19:22:36.381Z,22.17
2019-02-22T19:25:05.243Z,20.60
2019-02-22T19:27:32.577Z,20.80
2019-02-22T19:29:59.924Z,20.00
2019-02-22T19:32:27.226Z,22.67
2019-02-22T19:34:54.584Z,24.50
2019-02-22T19:37:21.936Z,27.20
2019-02-22T19:39:49.291Z,28.13
2019-02-22T19:42:16.664Z,22.53
2019-02-22T19:44:44.413Z,24.53
2019-02-22T19:47:11.763Z,28.30
2019-02-22T19:49:39.168Z,33.93
2019-02-22T19:52:06.549Z,32.23
2019-02-22T19:54:33.911Z,28.03
2019-02-22T19:57:01.301Z,25.43
2019-02-22T19:59:28.842Z,23.97
2019-02-22T20:01:56.343Z,21.83
2019-02-22T20:04:23.692Z,23.20
2019-02-22T20:06:50.974Z,22.00
2019-02-22T20:09:18.321Z,30.00
2019-02-22T20:11:48.021Z,26.87
2019-02-22T20:14:14.751Z,26.87
2019-02-22T20:16:42.029Z,21.47
2019-02-22T20:19:09.351Z,22.40
2019-02-22T20:21:36.705Z,26.90
2019-02-22T20:24:03.980Z,28.97
2019-02-22T20:26:31.345Z,23.07
2019-02-22T20:28:58.719Z,22.07
2019-02-22T20:31:26.070Z,21.43
2019-02-22T20:33:53.430Z,20.20
2019-02-22T20:36:27.991Z,21.70
2019-02-22T20:38:49.925Z,20.37
2019-02-22T20:41:17.252Z,20.57
2019-02-22T20:43:44.520Z,19.90
2019-02-22T20:46:11.820Z,18.10
2019-02-22T20:48:39.138Z,19.53
2019-02-22T20:51:06.469Z,18.60
2019-02-22T20:53:34.022Z,21.57
2019-02-22T20:56:01.366Z,21.43
2019-02-22T20:58:28.649Z,22.47
2019-02-22T21:00:55.960Z,21.53
2019-02-22T21:03:23.287Z,18.90
2019-02-22T21:05:50.643Z,20.70
2019-02-22T21:08:17.998Z,20.33
2019-02-22T21:10:45.366Z,21.33
2019-02-22T21:13:12.712Z,21.73
2019-02-22T21:15:40.053Z,19.57
2019-02-22T21:18:15.995Z,20.63
2019-02-22T21:20:36.461Z,20.07
2019-02-22T21:23:03.735Z,20.17
2019-02-22T21:25:31.073Z,21.90
2019-02-22T21:27:58.371Z,20.83
2019-02-22T21:30:25.699Z,20.63
2019-02-22T21:32:52.993Z,20.83
2019-02-22T21:35:20.554Z,21.50
2019-02-22T21:37:47.825Z,20.50
2019-02-22T21:40:15.167Z,20.33
2019-02-22T21:42:42.569Z,22.40
2019-02-22T21:45:13.728Z,23.73
2019-02-22T21:47:41.049Z,21.37
2019-02-22T21:50:10.223Z,22.33
2019-02-22T21:52:37.569Z,22.90
2019-02-22T21:55:07.153Z,22.70
2019-02-22T21:57:34.492Z,20.17
2019-02-22T22:00:01.771Z,23.17
2019-02-22T22:02:29.135Z,24.50
2019-02-22T22:04:56.441Z,23.83
2019-02-22T22:07:23.753Z,22.60
2019-02-22T22:09:50.986Z,21.13
2019-02-22T22:12:21.779Z,20.27
2019-02-22T22:14:49.081Z,18.80
2019-02-22T22:17:16.274Z,19.03
2019-02-22T22:19:43.563Z,19.37
2019-02-22T22:22:10.795Z,17.80
2019-02-22T22:24:38.117Z,19.67
2019-02-22T22:27:05.458Z,18.17
2019-02-22T22:29:32.973Z,17.73
2019-02-22T22:32:00.187Z,18.23
2019-02-22T22:34:27.828Z,16.57
2019-02-22T22:36:55.018Z,16.73
2019-02-22T22:39:22.344Z,17.43
2019-02-22T22:41:49.565Z,16.83
2019-02-22T22:44:16.861Z,16.37
2019-02-22T22:46:44.166Z,16.30
2019-02-22T22:49:11.454Z,16.07
2019-02-22T22:51:38.684Z,16.63
2019-02-22T22:54:06.027Z,16.07
2019-02-22T22:56:33.175Z,16.40
2019-02-22T22:59:00.247Z,15.70
2019-02-22T23:01:27.556Z,14.80
2019-02-22T23:03:54.872Z,14.77
2019-02-22T23:06:22.132Z,15.37
2019-02-22T23:08:49.433Z,15.43
2019-02-22T23:11:16.595Z,17.40
2019-02-22T23:13:43.934Z,16.60
2019-02-22T23:16:11.213Z,16.97
2019-02-22T23:18:38.399Z,16.30
2019-02-22T23:21:05.462Z,15.87
2019-02-22T23:23:32.751Z,16.13
2019-02-22T23:25:59.887Z,17.00
2019-02-22T23:28:27.048Z,16.20
2019-02-22T23:30:54.313Z,17.10
2019-02-22T23:33:21.545Z,16.03
2019-02-22T23:35:48.740Z,16.60
2019-02-22T23:38:15.935Z,16.50
2019-02-22T23:40:43.147Z,19.53
2019-02-22T23:43:10.461Z,22.53
2019-02-22T23:45:38.934Z,27.43
2019-02-22T23:48:06.176Z,26.53
2019-02-22T23:50:33.642Z,28.23
2019-02-22T23:53:00.800Z,26.90
2019-02-22T23:55:27.944Z,26.93
2019-02-22T23:57:55.241Z,24.77
